IVLH weather

Inverell Hospital Helipad
Inverell, New South Wales, Australia

Public forecast

Using degrees Celsius for public forecast. Weather courtesy of forecast.io.

METAR (pilot weather report)

Closest report is Moree Airport, 69.1 nm (127.9 km) WNW. Retrieved 2019/04/20 14:00 UTC (43 minutes ago):

YMOR 201400Z AUTO 07009KT 9999 // NCD 22/12 Q1021

TAF (pilot weather forecast)

Closest forecast is Tamworth Airport, 80.1 nm (148.4 km) S. Retrieved 2019/04/20 12:36 UTC (2 hours ago):

TAF TAF YSTW 201051Z 2012/2106 09010KT CAVOK FM201500 12010KT CAVOK FM210000 08007KT CAVOK